sensor_id;sensor_type;location;lat;lon;timestamp;pressure;altitude;pressure_sealevel;temperature;humidity
28344;BME280;15597;50.914;6.638;2022-09-17T00:02:21;100513.50;;;16.65;52.09
28344;BME280;15597;50.914;6.638;2022-09-17T00:04:50;100523.38;;;16.61;52.16
28344;BME280;15597;50.914;6.638;2022-09-17T00:07:16;100520.78;;;16.60;52.10
28344;BME280;15597;50.914;6.638;2022-09-17T00:09:42;100522.63;;;16.58;52.15
28344;BME280;15597;50.914;6.638;2022-09-17T00:12:09;100524.50;;;16.56;52.23
28344;BME280;15597;50.914;6.638;2022-09-17T00:14:34;100518.28;;;16.57;52.64
28344;BME280;15597;50.914;6.638;2022-09-17T00:17:00;100521.56;;;16.62;52.48
28344;BME280;15597;50.914;6.638;2022-09-17T00:19:25;100513.34;;;16.68;52.63
28344;BME280;15597;50.914;6.638;2022-09-17T00:21:51;100518.47;;;16.71;52.46
28344;BME280;15597;50.914;6.638;2022-09-17T00:24:17;100512.09;;;16.75;52.30
28344;BME280;15597;50.914;6.638;2022-09-17T00:26:43;100511.13;;;16.78;52.45
28344;BME280;15597;50.914;6.638;2022-09-17T00:29:10;100515.47;;;16.79;52.40
28344;BME280;15597;50.914;6.638;2022-09-17T00:31:36;100514.44;;;16.82;52.38
28344;BME280;15597;50.914;6.638;2022-09-17T00:34:03;100516.16;;;16.83;52.31
28344;BME280;15597;50.914;6.638;2022-09-17T00:36:29;100527.50;;;16.85;52.25
28344;BME280;15597;50.914;6.638;2022-09-17T00:38:57;100526.69;;;16.84;52.31
28344;BME280;15597;50.914;6.638;2022-09-17T00:41:24;100522.34;;;16.64;52.55
28344;BME280;15597;50.914;6.638;2022-09-17T00:43:54;100524.94;;;16.65;52.46
28344;BME280;15597;50.914;6.638;2022-09-17T00:46:25;100531.34;;;16.60;52.34
28344;BME280;15597;50.914;6.638;2022-09-17T00:48:54;100525.28;;;16.58;52.55
28344;BME280;15597;50.914;6.638;2022-09-17T00:51:33;100529.72;;;16.57;52.56
28344;BME280;15597;50.914;6.638;2022-09-17T00:54:00;100513.94;;;16.56;52.47
28344;BME280;15597;50.914;6.638;2022-09-17T00:56:29;100515.94;;;16.50;52.73
28344;BME280;15597;50.914;6.638;2022-09-17T00:58:56;100514.38;;;16.46;52.75
28344;BME280;15597;50.914;6.638;2022-09-17T01:01:22;100514.47;;;16.45;52.63
28344;BME280;15597;50.914;6.638;2022-09-17T01:03:48;100520.94;;;16.38;52.68
28344;BME280;15597;50.914;6.638;2022-09-17T01:06:41;100525.03;;;16.26;52.83
28344;BME280;15597;50.914;6.638;2022-09-17T01:15:00;100523.22;;;16.07;53.30
28344;BME280;15597;50.914;6.638;2022-09-17T01:17:55;100521.66;;;16.03;53.55
28344;BME280;15597;50.914;6.638;2022-09-17T01:23:25;100527.59;;;16.08;53.73
28344;BME280;15597;50.914;6.638;2022-09-17T01:34:11;100534.78;;;16.24;53.59
28344;BME280;15597;50.914;6.638;2022-09-17T01:36:53;100532.00;;;16.27;53.58
28344;BME280;15597;50.914;6.638;2022-09-17T01:45:26;100536.94;;;16.15;53.59
28344;BME280;15597;50.914;6.638;2022-09-17T01:48:06;100544.75;;;16.17;53.86
28344;BME280;15597;50.914;6.638;2022-09-17T01:50:44;100550.63;;;16.24;53.79
28344;BME280;15597;50.914;6.638;2022-09-17T01:53:13;100549.34;;;16.32;53.96
28344;BME280;15597;50.914;6.638;2022-09-17T01:55:42;100555.25;;;16.38;53.65
28344;BME280;15597;50.914;6.638;2022-09-17T01:58:24;100548.22;;;16.38;53.46
28344;BME280;15597;50.914;6.638;2022-09-17T02:00:55;100559.28;;;16.46;53.56
28344;BME280;15597;50.914;6.638;2022-09-17T02:03:36;100557.50;;;16.47;53.33
28344;BME280;15597;50.914;6.638;2022-09-17T02:06:07;100552.75;;;16.34;53.62
28344;BME280;15597;50.914;6.638;2022-09-17T02:08:38;100558.78;;;16.38;53.38
28344;BME280;15597;50.914;6.638;2022-09-17T02:11:11;100554.34;;;16.39;53.16
28344;BME280;15597;50.914;6.638;2022-09-17T02:14:13;100564.91;;;16.39;53.29
28344;BME280;15597;50.914;6.638;2022-09-17T02:16:46;100556.78;;;16.43;53.48
28344;BME280;15597;50.914;6.638;2022-09-17T02:19:22;100564.50;;;16.48;53.06
28344;BME280;15597;50.914;6.638;2022-09-17T02:22:02;100558.47;;;16.44;53.35
28344;BME280;15597;50.914;6.638;2022-09-17T02:30:23;100568.06;;;16.47;53.37
28344;BME280;15597;50.914;6.638;2022-09-17T02:32:49;100568.06;;;16.47;53.19
28344;BME280;15597;50.914;6.638;2022-09-17T02:35:15;100570.91;;;16.42;53.00
28344;BME280;15597;50.914;6.638;2022-09-17T02:37:42;100563.91;;;16.41;53.13
28344;BME280;15597;50.914;6.638;2022-09-17T02:40:12;100566.56;;;16.41;53.21
28344;BME280;15597;50.914;6.638;2022-09-17T02:49:19;100564.19;;;16.35;53.61
28344;BME280;15597;50.914;6.638;2022-09-17T02:54:51;100564.75;;;16.42;53.68
28344;BME280;15597;50.914;6.638;2022-09-17T03:00:08;100567.97;;;16.48;53.41
28344;BME280;15597;50.914;6.638;2022-09-17T03:02:45;100569.84;;;16.46;53.46
28344;BME280;15597;50.914;6.638;2022-09-17T03:05:13;100568.91;;;16.47;53.05
28344;BME280;15597;50.914;6.638;2022-09-17T03:07:41;100572.34;;;16.49;53.17
28344;BME280;15597;50.914;6.638;2022-09-17T03:10:06;100576.69;;;16.50;53.16
28344;BME280;15597;50.914;6.638;2022-09-17T03:12:32;100572.97;;;16.55;53.38
28344;BME280;15597;50.914;6.638;2022-09-17T03:14:58;100576.34;;;16.58;53.17
28344;BME280;15597;50.914;6.638;2022-09-17T03:17:24;100576.25;;;16.60;53.19
28344;BME280;15597;50.914;6.638;2022-09-17T03:19:49;100573.56;;;16.61;53.09
28344;BME280;15597;50.914;6.638;2022-09-17T03:22:15;100582.31;;;16.62;53.25
28344;BME280;15597;50.914;6.638;2022-09-17T03:24:40;100575.31;;;16.61;53.10
28344;BME280;15597;50.914;6.638;2022-09-17T03:27:05;100584.03;;;16.63;53.10
28344;BME280;15597;50.914;6.638;2022-09-17T03:29:31;100579.78;;;16.60;53.30
28344;BME280;15597;50.914;6.638;2022-09-17T03:31:56;100579.81;;;16.59;53.07
28344;BME280;15597;50.914;6.638;2022-09-17T03:34:23;100586.97;;;16.57;53.14
28344;BME280;15597;50.914;6.638;2022-09-17T03:36:48;100585.09;;;16.59;53.41
28344;BME280;15597;50.914;6.638;2022-09-17T03:39:14;100587.59;;;16.62;53.23
28344;BME280;15597;50.914;6.638;2022-09-17T03:41:40;100590.97;;;16.65;53.02
28344;BME280;15597;50.914;6.638;2022-09-17T03:44:05;100583.19;;;16.62;52.92
28344;BME280;15597;50.914;6.638;2022-09-17T03:46:31;100584.97;;;16.62;53.04
28344;BME280;15597;50.914;6.638;2022-09-17T03:48:56;100592.19;;;16.58;52.93
28344;BME280;15597;50.914;6.638;2022-09-17T03:51:22;100583.34;;;16.59;52.95
28344;BME280;15597;50.914;6.638;2022-09-17T03:53:47;100584.97;;;16.62;52.92
28344;BME280;15597;50.914;6.638;2022-09-17T03:56:13;100593.81;;;16.61;53.08
28344;BME280;15597;50.914;6.638;2022-09-17T03:58:39;100587.47;;;16.65;53.00
28344;BME280;15597;50.914;6.638;2022-09-17T04:01:05;100582.03;;;16.68;52.99
28344;BME280;15597;50.914;6.638;2022-09-17T04:03:31;100592.59;;;16.68;52.77
28344;BME280;15597;50.914;6.638;2022-09-17T04:05:57;100592.59;;;16.68;52.68
28344;BME280;15597;50.914;6.638;2022-09-17T04:08:22;100597.72;;;16.71;52.79
28344;BME280;15597;50.914;6.638;2022-09-17T04:10:48;100586.25;;;16.72;52.57
28344;BME280;15597;50.914;6.638;2022-09-17T04:13:15;100589.91;;;16.70;52.46
28344;BME280;15597;50.914;6.638;2022-09-17T04:15:41;100592.75;;;16.65;52.53
28344;BME280;15597;50.914;6.638;2022-09-17T04:18:07;100593.91;;;16.59;52.51
28344;BME280;15597;50.914;6.638;2022-09-17T04:20:33;100594.25;;;16.52;52.49
28344;BME280;15597;50.914;6.638;2022-09-17T04:22:58;100597.03;;;16.48;52.68
28344;BME280;15597;50.914;6.638;2022-09-17T04:25:24;100595.47;;;16.44;52.62
28344;BME280;15597;50.914;6.638;2022-09-17T04:27:49;100597.31;;;16.42;52.78
28344;BME280;15597;50.914;6.638;2022-09-17T04:30:16;100596.59;;;16.39;52.67
28344;BME280;15597;50.914;6.638;2022-09-17T04:32:44;100607.22;;;16.37;52.78
28344;BME280;15597;50.914;6.638;2022-09-17T04:35:11;100605.28;;;16.41;52.92
28344;BME280;15597;50.914;6.638;2022-09-17T04:37:36;100602.59;;;16.42;52.90
28344;BME280;15597;50.914;6.638;2022-09-17T04:40:02;100603.31;;;16.46;53.00
28344;BME280;15597;50.914;6.638;2022-09-17T04:42:28;100605.88;;;16.47;52.91
28344;BME280;15597;50.914;6.638;2022-09-17T04:44:54;100610.31;;;16.47;52.96
28344;BME280;15597;50.914;6.638;2022-09-17T04:47:19;100597.16;;;16.45;53.06
28344;BME280;15597;50.914;6.638;2022-09-17T04:49:45;100604.16;;;16.46;52.97
28344;BME280;15597;50.914;6.638;2022-09-17T04:52:10;100604.94;;;16.48;53.06
28344;BME280;15597;50.914;6.638;2022-09-17T04:54:36;100610.22;;;16.48;53.11
28344;BME280;15597;50.914;6.638;2022-09-17T04:57:01;100611.16;;;16.47;53.21
28344;BME280;15597;50.914;6.638;2022-09-17T04:59:27;100611.16;;;16.47;53.17
28344;BME280;15597;50.914;6.638;2022-09-17T05:01:53;100614.59;;;16.49;53.21
28344;BME280;15597;50.914;6.638;2022-09-17T05:04:19;100616.16;;;16.54;53.09
28344;BME280;15597;50.914;6.638;2022-09-17T05:06:45;100612.59;;;16.55;53.18
28344;BME280;15597;50.914;6.638;2022-09-17T05:09:10;100613.38;;;16.57;53.14
28344;BME280;15597;50.914;6.638;2022-09-17T05:11:36;100617.97;;;16.53;53.13
28344;BME280;15597;50.914;6.638;2022-09-17T05:14:01;100617.38;;;16.46;53.14
28344;BME280;15597;50.914;6.638;2022-09-17T05:16:27;100621.06;;;16.42;53.16
28344;BME280;15597;50.914;6.638;2022-09-17T05:18:52;100618.72;;;16.36;53.25
28344;BME280;15597;50.914;6.638;2022-09-17T05:21:18;100613.44;;;16.36;53.35
28344;BME280;15597;50.914;6.638;2022-09-17T05:23:45;100612.56;;;16.35;53.17
28344;BME280;15597;50.914;6.638;2022-09-17T05:26:10;100615.16;;;16.37;53.38
28344;BME280;15597;50.914;6.638;2022-09-17T05:28:36;100615.06;;;16.39;53.26
28344;BME280;15597;50.914;6.638;2022-09-17T05:31:02;100614.41;;;16.33;53.46
28344;BME280;15597;50.914;6.638;2022-09-17T05:33:28;100621.56;;;16.31;53.44
28344;BME280;15597;50.914;6.638;2022-09-17T05:35:54;100629.63;;;16.28;53.57
28344;BME280;15597;50.914;6.638;2022-09-17T05:38:20;100622.84;;;16.23;53.55
28344;BME280;15597;50.914;6.638;2022-09-17T05:40:45;100629.09;;;16.20;53.79
28344;BME280;15597;50.914;6.638;2022-09-17T05:43:13;100625.47;;;16.23;53.78
28344;BME280;15597;50.914;6.638;2022-09-17T05:45:39;100625.41;;;16.24;54.31
28344;BME280;15597;50.914;6.638;2022-09-17T05:48:06;100640.25;;;16.27;54.06
28344;BME280;15597;50.914;6.638;2022-09-17T05:50:32;100634.84;;;16.30;53.92
28344;BME280;15597;50.914;6.638;2022-09-17T05:53:10;100641.03;;;16.29;54.01
28344;BME280;15597;50.914;6.638;2022-09-17T05:55:36;100653.97;;;16.35;54.07
28344;BME280;15597;50.914;6.638;2022-09-17T05:58:18;100650.47;;;16.34;54.09
28344;BME280;15597;50.914;6.638;2022-09-17T06:00:45;100655.41;;;16.42;54.00
28344;BME280;15597;50.914;6.638;2022-09-17T06:03:12;100655.28;;;16.45;54.13
28344;BME280;15597;50.914;6.638;2022-09-17T06:05:39;100654.22;;;16.49;54.25
28344;BME280;15597;50.914;6.638;2022-09-17T06:08:05;100655.72;;;16.55;53.99
28344;BME280;15597;50.914;6.638;2022-09-17T06:10:31;100646.72;;;16.59;53.98
28344;BME280;15597;50.914;6.638;2022-09-17T06:12:57;100655.34;;;16.63;53.92
28344;BME280;15597;50.914;6.638;2022-09-17T06:15:24;100654.28;;;16.67;54.01
28344;BME280;15597;50.914;6.638;2022-09-17T06:17:50;100656.88;;;16.69;53.28
28344;BME280;15597;50.914;6.638;2022-09-17T06:20:15;100661.16;;;16.71;53.68
28344;BME280;15597;50.914;6.638;2022-09-17T06:22:42;100659.16;;;16.76;53.60
28344;BME280;15597;50.914;6.638;2022-09-17T06:25:07;100660.84;;;16.77;53.64
28344;BME280;15597;50.914;6.638;2022-09-17T06:27:33;100661.78;;;16.76;53.60
28344;BME280;15597;50.914;6.638;2022-09-17T06:29:59;100662.84;;;16.72;53.54
28344;BME280;15597;50.914;6.638;2022-09-17T06:32:26;100667.34;;;16.70;53.49
28344;BME280;15597;50.914;6.638;2022-09-17T06:34:51;100667.44;;;16.69;53.58
28344;BME280;15597;50.914;6.638;2022-09-17T06:37:18;100662.16;;;16.69;53.67
28344;BME280;15597;50.914;6.638;2022-09-17T06:39:43;100668.44;;;16.66;53.64
28344;BME280;15597;50.914;6.638;2022-09-17T06:42:10;100679.88;;;16.67;54.01
28344;BME280;15597;50.914;6.638;2022-09-17T06:44:37;100679.88;;;16.67;53.42
28344;BME280;15597;50.914;6.638;2022-09-17T06:47:03;100683.34;;;16.67;53.52
28344;BME280;15597;50.914;6.638;2022-09-17T06:49:29;100674.63;;;16.65;53.57
28344;BME280;15597;50.914;6.638;2022-09-17T06:51:55;100687.84;;;16.65;53.38
28344;BME280;15597;50.914;6.638;2022-09-17T06:54:21;100682.41;;;16.68;53.40
28344;BME280;15597;50.914;6.638;2022-09-17T06:56:46;100683.16;;;16.72;53.60
28344;BME280;15597;50.914;6.638;2022-09-17T06:59:12;100688.44;;;16.72;53.64
28344;BME280;15597;50.914;6.638;2022-09-17T07:01:37;100691.13;;;16.70;53.68
28344;BME280;15597;50.914;6.638;2022-09-17T07:04:03;100670.13;;;16.67;53.52
28344;BME280;15597;50.914;6.638;2022-09-17T07:06:29;100685.19;;;16.65;53.65
28344;BME280;15597;50.914;6.638;2022-09-17T07:08:54;100685.28;;;16.63;53.71
28344;BME280;15597;50.914;6.638;2022-09-17T07:11:20;100683.50;;;16.64;53.69
28344;BME280;15597;50.914;6.638;2022-09-17T07:13:45;100688.78;;;16.64;53.82
28344;BME280;15597;50.914;6.638;2022-09-17T07:16:11;100691.41;;;16.64;53.67
28344;BME280;15597;50.914;6.638;2022-09-17T07:18:37;100684.28;;;16.66;53.77
28344;BME280;15597;50.914;6.638;2022-09-17T07:21:04;100691.13;;;16.70;53.81
28344;BME280;15597;50.914;6.638;2022-09-17T07:23:32;100689.22;;;16.74;53.83
28344;BME280;15597;50.914;6.638;2022-09-17T07:26:00;100694.41;;;16.75;53.67
28344;BME280;15597;50.914;6.638;2022-09-17T07:28:27;100696.88;;;16.80;53.65
28344;BME280;15597;50.914;6.638;2022-09-17T07:30:53;100688.84;;;16.82;53.57
28344;BME280;15597;50.914;6.638;2022-09-17T07:33:23;100693.06;;;16.86;53.63
28344;BME280;15597;50.914;6.638;2022-09-17T07:35:54;100685.94;;;16.88;53.45
28344;BME280;15597;50.914;6.638;2022-09-17T07:38:19;100687.44;;;16.93;53.24
28344;BME280;15597;50.914;6.638;2022-09-17T07:41:00;100686.72;;;16.90;53.37
28344;BME280;15597;50.914;6.638;2022-09-17T07:43:28;100676.78;;;16.95;53.39
28344;BME280;15597;50.914;6.638;2022-09-17T07:45:56;100684.53;;;17.00;53.40
28344;BME280;15597;50.914;6.638;2022-09-17T07:48:22;100689.63;;;17.04;53.31
28344;BME280;15597;50.914;6.638;2022-09-17T07:50:49;100685.03;;;17.08;53.41
28344;BME280;15597;50.914;6.638;2022-09-17T07:53:14;100690.28;;;17.10;53.32
28344;BME280;15597;50.914;6.638;2022-09-17T07:55:40;100694.63;;;17.11;53.17
28344;BME280;15597;50.914;6.638;2022-09-17T07:58:07;100693.75;;;17.10;52.98
28344;BME280;15597;50.914;6.638;2022-09-17T08:00:32;100700.69;;;17.13;53.22
28344;BME280;15597;50.914;6.638;2022-09-17T08:02:58;100698.88;;;17.13;53.03
28344;BME280;15597;50.914;6.638;2022-09-17T08:05:24;100698.75;;;17.16;52.94
28344;BME280;15597;50.914;6.638;2022-09-17T08:07:54;100703.97;;;17.18;52.97
28344;BME280;15597;50.914;6.638;2022-09-17T08:10:21;100702.91;;;17.22;52.63
28344;BME280;15597;50.914;6.638;2022-09-17T08:12:54;100704.91;;;17.17;52.68
28344;BME280;15597;50.914;6.638;2022-09-17T08:15:21;100709.03;;;17.22;52.48
28344;BME280;15597;50.914;6.638;2022-09-17T08:17:47;100709.03;;;17.22;52.49
28344;BME280;15597;50.914;6.638;2022-09-17T08:20:14;100708.19;;;17.22;52.38
28344;BME280;15597;50.914;6.638;2022-09-17T08:22:41;100709.91;;;17.23;52.24
28344;BME280;15597;50.914;6.638;2022-09-17T08:25:08;100704.47;;;17.26;52.40
28344;BME280;15597;50.914;6.638;2022-09-17T08:27:35;100707.81;;;17.30;52.41
28344;BME280;15597;50.914;6.638;2022-09-17T08:30:04;100701.38;;;17.35;52.34
28344;BME280;15597;50.914;6.638;2022-09-17T08:32:30;100703.00;;;17.38;52.13
28344;BME280;15597;50.914;6.638;2022-09-17T08:34:56;100701.91;;;17.42;52.14
28344;BME280;15597;50.914;6.638;2022-09-17T08:37:21;100698.13;;;17.48;52.21
28344;BME280;15597;50.914;6.638;2022-09-17T08:39:47;100701.56;;;17.50;52.10
28344;BME280;15597;50.914;6.638;2022-09-17T08:42:23;100714.78;;;17.50;52.15
28344;BME280;15597;50.914;6.638;2022-09-17T08:44:52;100715.38;;;17.57;51.78
28344;BME280;15597;50.914;6.638;2022-09-17T08:47:28;100712.56;;;17.60;52.16
28344;BME280;15597;50.914;6.638;2022-09-17T08:49:59;100718.69;;;17.60;51.71
28344;BME280;15597;50.914;6.638;2022-09-17T08:52:47;100725.06;;;17.56;51.84
28344;BME280;15597;50.914;6.638;2022-09-17T08:58:26;100718.84;;;17.57;51.82
28344;BME280;15597;50.914;6.638;2022-09-17T09:06:30;100731.72;;;17.65;51.45
28344;BME280;15597;50.914;6.638;2022-09-17T09:09:01;100710.41;;;17.68;51.33
28344;BME280;15597;50.914;6.638;2022-09-17T09:11:30;100715.28;;;17.76;51.11
28344;BME280;15597;50.914;6.638;2022-09-17T09:14:28;100717.94;;;17.76;51.22
28344;BME280;15597;50.914;6.638;2022-09-17T09:16:56;100714.06;;;17.83;51.11
28344;BME280;15597;50.914;6.638;2022-09-17T09:19:23;100705.81;;;17.89;51.17
28344;BME280;15597;50.914;6.638;2022-09-17T09:24:27;100708.13;;;17.95;51.01
28344;BME280;15597;50.914;6.638;2022-09-17T09:32:24;100718.44;;;18.02;50.41
28344;BME280;15597;50.914;6.638;2022-09-17T09:34:53;100716.28;;;18.10;50.13
28344;BME280;15597;50.914;6.638;2022-09-17T09:37:30;100709.13;;;18.12;50.26
28344;BME280;15597;50.914;6.638;2022-09-17T09:42:43;100705.84;;;18.24;49.91
28344;BME280;15597;50.914;6.638;2022-09-17T09:45:13;100704.75;;;18.29;49.66
28344;BME280;15597;50.914;6.638;2022-09-17T09:48:02;100707.31;;;18.30;49.90
28344;BME280;15597;50.914;6.638;2022-09-17T09:51:03;100699.13;;;18.35;49.76
28344;BME280;15597;50.914;6.638;2022-09-17T09:53:52;100697.88;;;18.42;49.22
28344;BME280;15597;50.914;6.638;2022-09-17T09:58:59;100697.28;;;18.53;49.00
28344;BME280;15597;50.914;6.638;2022-09-17T10:01:28;100699.53;;;18.61;48.59
28344;BME280;15597;50.914;6.638;2022-09-17T10:03:54;100690.47;;;18.65;48.14
28344;BME280;15597;50.914;6.638;2022-09-17T10:06:22;100702.63;;;18.69;48.22
28344;BME280;15597;50.914;6.638;2022-09-17T10:11:22;100695.94;;;18.62;47.82
28344;BME280;15597;50.914;6.638;2022-09-17T10:13:48;100706.47;;;18.63;47.74
28344;BME280;15597;50.914;6.638;2022-09-17T10:16:25;100700.41;;;18.61;47.50
28344;BME280;15597;50.914;6.638;2022-09-17T10:19:18;100691.13;;;18.52;48.11
28344;BME280;15597;50.914;6.638;2022-09-17T10:21:50;100701.25;;;18.62;48.00
28344;BME280;15597;50.914;6.638;2022-09-17T10:24:26;100697.66;;;18.63;48.21
28344;BME280;15597;50.914;6.638;2022-09-17T10:27:00;100693.91;;;18.67;48.05
28344;BME280;15597;50.914;6.638;2022-09-17T10:29:27;100701.44;;;18.75;47.84
28344;BME280;15597;50.914;6.638;2022-09-17T10:31:54;100697.88;;;18.76;48.25
28344;BME280;15597;50.914;6.638;2022-09-17T10:34:31;100700.50;;;18.76;48.06
28344;BME280;15597;50.914;6.638;2022-09-17T10:36:58;100691.69;;;18.75;47.98
28344;BME280;15597;50.914;6.638;2022-09-17T10:39:50;100695.63;;;18.68;48.33
28344;BME280;15597;50.914;6.638;2022-09-17T10:42:18;100691.69;;;18.75;47.96
28344;BME280;15597;50.914;6.638;2022-09-17T10:44:55;100695.22;;;18.76;48.22
28344;BME280;15597;50.914;6.638;2022-09-17T10:47:24;100688.47;;;18.86;47.92
28344;BME280;15597;50.914;6.638;2022-09-17T10:52:36;100688.50;;;19.02;48.03
28344;BME280;15597;50.914;6.638;2022-09-17T11:11:07;100658.28;;;19.67;47.33
28344;BME280;15597;50.914;6.638;2022-09-17T11:16:40;100655.75;;;19.66;47.47
28344;BME280;15597;50.914;6.638;2022-09-17T11:21:42;100675.38;;;19.78;46.42
28344;BME280;15597;50.914;6.638;2022-09-17T11:24:34;100674.63;;;19.76;46.45
28344;BME280;15597;50.914;6.638;2022-09-17T11:27:13;100686.53;;;19.68;46.59
28344;BME280;15597;50.914;6.638;2022-09-17T11:32:44;100686.84;;;19.48;47.07
28344;BME280;15597;50.914;6.638;2022-09-17T11:35:16;100678.88;;;19.48;47.22
28344;BME280;15597;50.914;6.638;2022-09-17T11:38:43;100676.59;;;19.41;47.51
28344;BME280;15597;50.914;6.638;2022-09-17T11:41:11;100677.19;;;19.47;47.47
28344;BME280;15597;50.914;6.638;2022-09-17T11:43:46;100680.41;;;19.52;47.73
28344;BME280;15597;50.914;6.638;2022-09-17T11:46:22;100670.16;;;19.62;47.69
28344;BME280;15597;50.914;6.638;2022-09-17T11:51:35;100656.25;;;19.87;46.93
28344;BME280;15597;50.914;6.638;2022-09-17T11:56:50;100654.38;;;19.89;46.31
28344;BME280;15597;50.914;6.638;2022-09-17T11:59:30;100649.22;;;19.86;46.35
28344;BME280;15597;50.914;6.638;2022-09-17T12:02:03;100658.91;;;19.87;45.62
28344;BME280;15597;50.914;6.638;2022-09-17T12:04:41;100656.25;;;19.87;44.80
28344;BME280;15597;50.914;6.638;2022-09-17T12:13:02;100677.50;;;19.56;45.60
28344;BME280;15597;50.914;6.638;2022-09-17T12:15:33;100673.22;;;19.54;45.88
28344;BME280;15597;50.914;6.638;2022-09-17T12:18:16;100673.22;;;19.54;46.33
28344;BME280;15597;50.914;6.638;2022-09-17T12:20:46;100670.47;;;19.55;46.74
28344;BME280;15597;50.914;6.638;2022-09-17T12:23:17;100667.56;;;19.60;47.60
28344;BME280;15597;50.914;6.638;2022-09-17T12:25:56;100652.16;;;19.67;48.06
28344;BME280;15597;50.914;6.638;2022-09-17T12:28:33;100652.25;;;19.80;48.45
28344;BME280;15597;50.914;6.638;2022-09-17T12:31:27;100655.16;;;19.91;48.17
28344;BME280;15597;50.914;6.638;2022-09-17T12:34:25;100647.03;;;20.09;48.01
28344;BME280;15597;50.914;6.638;2022-09-17T12:37:25;100640.31;;;20.18;48.06
28344;BME280;15597;50.914;6.638;2022-09-17T12:43:12;100635.66;;;20.50;47.63
28344;BME280;15597;50.914;6.638;2022-09-17T12:48:35;100638.09;;;20.68;45.57
28344;BME280;15597;50.914;6.638;2022-09-17T12:54:34;100632.78;;;20.82;44.75
28344;BME280;15597;50.914;6.638;2022-09-17T12:59:15;100637.72;;;20.74;43.97
28344;BME280;15597;50.914;6.638;2022-09-17T13:02:14;100634.69;;;20.66;43.62
28344;BME280;15597;50.914;6.638;2022-09-17T13:15:33;100621.16;;;20.12;43.21
28344;BME280;15597;50.914;6.638;2022-09-17T13:18:26;100620.00;;;20.02;43.52
28344;BME280;15597;50.914;6.638;2022-09-17T13:23:38;100619.69;;;19.92;43.86
28344;BME280;15597;50.914;6.638;2022-09-17T13:26:06;100619.31;;;19.98;43.92
28344;BME280;15597;50.914;6.638;2022-09-17T13:31:02;100611.00;;;20.19;44.65
28344;BME280;15597;50.914;6.638;2022-09-17T13:38:58;100603.22;;;20.45;44.34
28344;BME280;15597;50.914;6.638;2022-09-17T13:41:24;100607.63;;;20.59;43.89
28344;BME280;15597;50.914;6.638;2022-09-17T13:43:51;100608.59;;;20.72;43.50
28344;BME280;15597;50.914;6.638;2022-09-17T13:46:27;100611.31;;;20.85;44.63
28344;BME280;15597;50.914;6.638;2022-09-17T13:48:57;100615.97;;;20.96;43.97
28344;BME280;15597;50.914;6.638;2022-09-17T13:54:01;100614.81;;;21.00;42.73
28344;BME280;15597;50.914;6.638;2022-09-17T13:56:32;100607.47;;;21.04;42.35
28344;BME280;15597;50.914;6.638;2022-09-17T13:59:15;100610.44;;;20.99;42.07
28344;BME280;15597;50.914;6.638;2022-09-17T14:10:01;100608.88;;;21.37;41.64
28344;BME280;15597;50.914;6.638;2022-09-17T14:12:54;100606.53;;;21.45;41.62
28344;BME280;15597;50.914;6.638;2022-09-17T14:15:30;100613.31;;;21.64;41.36
28344;BME280;15597;50.914;6.638;2022-09-17T14:17:56;100600.22;;;21.87;40.58
28344;BME280;15597;50.914;6.638;2022-09-17T14:20:23;100600.66;;;21.94;40.60
28344;BME280;15597;50.914;6.638;2022-09-17T14:22:59;100606.84;;;21.81;40.55
28344;BME280;15597;50.914;6.638;2022-09-17T14:25:32;100597.44;;;21.76;40.30
28344;BME280;15597;50.914;6.638;2022-09-17T14:28:07;100612.16;;;21.68;39.77
28344;BME280;15597;50.914;6.638;2022-09-17T14:30:41;100612.00;;;21.57;39.98
28344;BME280;15597;50.914;6.638;2022-09-17T14:33:14;100613.56;;;21.47;40.11
28344;BME280;15597;50.914;6.638;2022-09-17T14:35:45;100612.06;;;21.42;40.33
28344;BME280;15597;50.914;6.638;2022-09-17T14:38:19;100610.44;;;21.27;40.26
28344;BME280;15597;50.914;6.638;2022-09-17T14:40:46;100627.22;;;21.00;40.58
28344;BME280;15597;50.914;6.638;2022-09-17T14:43:25;100621.28;;;20.96;40.34
28344;BME280;15597;50.914;6.638;2022-09-17T14:45:56;100627.44;;;20.97;40.32
28344;BME280;15597;50.914;6.638;2022-09-17T14:50:48;100621.97;;;20.85;40.44
28344;BME280;15597;50.914;6.638;2022-09-17T14:53:18;100619.84;;;20.76;40.43
28344;BME280;15597;50.914;6.638;2022-09-17T14:55:50;100611.31;;;20.71;40.46
28344;BME280;15597;50.914;6.638;2022-09-17T14:58:37;100611.91;;;20.62;40.82
28344;BME280;15597;50.914;6.638;2022-09-17T15:01:05;100599.25;;;20.65;40.70
28344;BME280;15597;50.914;6.638;2022-09-17T15:03:31;100605.66;;;20.63;40.63
28344;BME280;15597;50.914;6.638;2022-09-17T15:05:56;100603.19;;;20.60;40.75
28344;BME280;15597;50.914;6.638;2022-09-17T15:08:24;100619.13;;;20.60;41.04
28344;BME280;15597;50.914;6.638;2022-09-17T15:10:55;100615.72;;;20.57;41.04
28344;BME280;15597;50.914;6.638;2022-09-17T15:13:27;100613.34;;;20.53;41.30
28344;BME280;15597;50.914;6.638;2022-09-17T15:16:12;100622.19;;;20.53;41.43
28344;BME280;15597;50.914;6.638;2022-09-17T15:18:42;100651.88;;;20.46;41.69
28344;BME280;15597;50.914;6.638;2022-09-17T15:21:31;100649.22;;;20.31;41.52
28344;BME280;15597;50.914;6.638;2022-09-17T15:29:58;100637.63;;;20.03;42.32
28344;BME280;15597;50.914;6.638;2022-09-17T15:32:26;100618.00;;;20.06;42.46
28344;BME280;15597;50.914;6.638;2022-09-17T15:37:45;100623.31;;;20.06;42.53
28344;BME280;15597;50.914;6.638;2022-09-17T15:40:33;100623.59;;;20.01;42.82
28344;BME280;15597;50.914;6.638;2022-09-17T15:43:05;100629.56;;;19.90;43.29
28344;BME280;15597;50.914;6.638;2022-09-17T15:45:38;100626.63;;;19.64;44.06
28344;BME280;15597;50.914;6.638;2022-09-17T15:50:58;100626.06;;;19.74;44.50